createdAt,value
2023-02-11T00:00:21.998Z,98.56
2023-02-11T00:02:48.635Z,97.56
2023-02-11T00:05:15.402Z,99.96
2023-02-11T00:07:42.139Z,98.31
2023-02-11T00:10:09.383Z,100.00
2023-02-11T00:12:37.459Z,97.89
2023-02-11T00:15:06.059Z,98.00
2023-02-11T00:17:32.888Z,98.17
2023-02-11T00:19:59.549Z,97.27
2023-02-11T00:22:26.488Z,97.99
2023-02-11T00:24:53.114Z,100.00
2023-02-11T00:27:19.981Z,99.98
2023-02-11T00:29:46.632Z,98.75
2023-02-11T00:32:13.304Z,98.89
2023-02-11T00:34:39.982Z,100.00
2023-02-11T00:37:06.635Z,100.00
2023-02-11T00:39:33.231Z,98.79
2023-02-11T00:41:59.844Z,99.11
2023-02-11T00:44:26.523Z,99.26
2023-02-11T00:46:53.116Z,100.00
2023-02-11T00:49:19.702Z,100.00
2023-02-11T00:51:46.355Z,100.00
2023-02-11T00:54:13.280Z,100.00
2023-02-11T00:56:39.901Z,100.00
2023-02-11T00:59:06.529Z,99.67
2023-02-11T01:01:33.256Z,99.09
2023-02-11T01:04:00.145Z,99.73
2023-02-11T01:06:26.768Z,100.00
2023-02-11T01:08:53.392Z,100.00
2023-02-11T01:11:21.275Z,99.22
2023-02-11T01:13:49.931Z,99.32
2023-02-11T01:16:17.809Z,100.00
2023-02-11T01:18:46.163Z,99.50
2023-02-11T01:21:12.845Z,100.00
2023-02-11T01:23:39.417Z,100.00
2023-02-11T01:26:06.697Z,100.00
2023-02-11T01:28:33.729Z,100.00
2023-02-11T01:31:02.290Z,100.00
2023-02-11T01:33:29.117Z,100.00
2023-02-11T01:35:55.840Z,100.00
2023-02-11T01:38:25.040Z,100.00
2023-02-11T01:40:56.413Z,100.00
2023-02-11T01:43:24.793Z,100.00
2023-02-11T01:46:00.238Z,100.00
2023-02-11T01:48:34.639Z,100.00
2023-02-11T01:51:16.646Z,100.00
2023-02-11T01:54:04.460Z,100.00
2023-02-11T01:56:50.070Z,100.00
2023-02-11T01:59:32.232Z,100.00
2023-02-11T02:02:03.553Z,100.00
2023-02-11T02:04:36.017Z,100.00
2023-02-11T02:07:08.901Z,100.00
2023-02-11T02:09:42.015Z,100.00
2023-02-11T02:12:08.780Z,100.00
2023-02-11T02:14:39.664Z,100.00
2023-02-11T02:17:06.997Z,100.00
2023-02-11T02:19:39.956Z,100.00
2023-02-11T02:22:34.947Z,100.00
2023-02-11T02:25:29.400Z,100.00
2023-02-11T02:28:08.205Z,100.00
2023-02-11T02:30:53.723Z,100.00
2023-02-11T02:33:25.371Z,100.00
2023-02-11T02:35:57.791Z,100.00
2023-02-11T02:38:39.333Z,100.00
2023-02-11T02:41:12.998Z,100.00
2023-02-11T02:43:43.824Z,100.00
2023-02-11T02:46:11.721Z,100.00
2023-02-11T02:48:38.759Z,100.00
2023-02-11T02:51:08.343Z,100.00
2023-02-11T02:53:56.093Z,100.00
2023-02-11T02:56:35.756Z,100.00
2023-02-11T02:59:11.394Z,100.00
2023-02-11T03:01:56.770Z,100.00
2023-02-11T03:05:04.378Z,100.00
2023-02-11T03:07:58.903Z,100.00
2023-02-11T03:10:31.112Z,100.00
2023-02-11T03:12:58.764Z,100.00
2023-02-11T03:15:28.541Z,100.00
2023-02-11T03:17:58.810Z,100.00
2023-02-11T03:20:27.328Z,100.00
2023-02-11T03:23:15.783Z,100.00
2023-02-11T03:25:50.689Z,100.00
2023-02-11T03:28:23.347Z,100.00
2023-02-11T03:30:57.036Z,100.00
2023-02-11T03:33:38.946Z,100.00
2023-02-11T03:36:15.224Z,100.00
2023-02-11T03:38:54.142Z,100.00
2023-02-11T03:41:24.172Z,100.00
2023-02-11T03:43:54.584Z,100.00
2023-02-11T03:46:28.155Z,100.00
2023-02-11T03:48:59.294Z,100.00
2023-02-11T03:51:28.496Z,100.00
2023-02-11T03:53:58.573Z,100.00
2023-02-11T03:56:29.137Z,100.00
2023-02-11T03:58:56.062Z,100.00
2023-02-11T04:01:22.955Z,100.00
2023-02-11T04:03:49.837Z,100.00
2023-02-11T04:06:16.522Z,100.00
2023-02-11T04:08:43.159Z,100.00
2023-02-11T04:11:09.756Z,100.00
2023-02-11T04:13:36.391Z,100.00
2023-02-11T04:16:03.230Z,100.00
2023-02-11T04:18:29.926Z,100.00
2023-02-11T04:20:56.634Z,100.00
2023-02-11T04:23:23.288Z,100.00
2023-02-11T04:25:50.596Z,100.00
2023-02-11T04:28:17.389Z,100.00
2023-02-11T04:30:44.015Z,100.00
2023-02-11T04:33:10.628Z,100.00
2023-02-11T04:35:37.289Z,100.00
2023-02-11T04:38:03.881Z,100.00
2023-02-11T04:40:30.629Z,100.00
2023-02-11T04:42:57.331Z,100.00
2023-02-11T04:45:24.217Z,100.00
2023-02-11T04:47:50.925Z,100.00
2023-02-11T04:50:17.958Z,100.00
2023-02-11T04:52:44.597Z,100.00
2023-02-11T04:55:11.703Z,100.00
2023-02-11T04:57:38.415Z,100.00
2023-02-11T05:00:06.024Z,100.00
2023-02-11T05:02:32.608Z,100.00
2023-02-11T05:04:59.210Z,100.00
2023-02-11T05:07:25.803Z,100.00
2023-02-11T05:09:52.411Z,100.00
2023-02-11T05:12:19.016Z,100.00
2023-02-11T05:14:45.712Z,100.00
2023-02-11T05:17:12.448Z,100.00
2023-02-11T05:19:39.118Z,100.00
2023-02-11T05:22:05.734Z,100.00
2023-02-11T05:24:32.682Z,100.00
2023-02-11T05:26:59.998Z,100.00
2023-02-11T05:29:26.639Z,100.00
2023-02-11T05:31:53.643Z,100.00
2023-02-11T05:34:20.352Z,100.00
2023-02-11T05:36:47.007Z,100.00
2023-02-11T05:39:13.631Z,100.00
2023-02-11T05:41:40.218Z,100.00
2023-02-11T05:44:06.804Z,100.00
2023-02-11T05:46:33.488Z,100.00
2023-02-11T05:49:00.269Z,100.00
2023-02-11T05:51:28.008Z,98.67
2023-02-11T05:53:54.693Z,96.56
2023-02-11T05:56:21.386Z,98.13
2023-02-11T05:58:48.048Z,98.35
2023-02-11T06:01:14.722Z,98.72
2023-02-11T06:03:41.476Z,95.58
2023-02-11T06:06:12.604Z,93.41
2023-02-11T06:08:39.735Z,87.52
2023-02-11T06:11:06.545Z,83.16
2023-02-11T06:13:33.260Z,79.49
2023-02-11T06:16:01.016Z,78.96
2023-02-11T06:18:27.951Z,84.42
2023-02-11T06:20:54.792Z,87.37
2023-02-11T06:23:22.132Z,82.25
2023-02-11T06:25:49.425Z,77.81
2023-02-11T06:28:16.767Z,76.91
2023-02-11T06:30:43.577Z,82.62
2023-02-11T06:33:10.285Z,100.00
2023-02-11T06:35:39.936Z,98.95
2023-02-11T06:38:06.537Z,77.50
2023-02-11T06:40:33.119Z,77.32
2023-02-11T06:42:59.808Z,80.17
2023-02-11T06:45:26.481Z,90.79
2023-02-11T06:47:53.611Z,73.59
2023-02-11T06:50:20.491Z,68.19
2023-02-11T06:52:47.134Z,70.19
2023-02-11T06:55:14.235Z,73.34
2023-02-11T06:57:41.542Z,79.96
2023-02-11T07:00:09.392Z,84.88
2023-02-11T07:02:36.443Z,86.15
2023-02-11T07:05:03.490Z,89.58
2023-02-11T07:07:34.132Z,78.90
2023-02-11T07:10:04.752Z,75.23
2023-02-11T07:12:32.280Z,81.11
2023-02-11T07:14:59.151Z,74.68
2023-02-11T07:17:25.828Z,71.92
2023-02-11T07:20:00.530Z,79.89
2023-02-11T07:22:27.544Z,67.48
2023-02-11T07:24:54.251Z,74.07
2023-02-11T07:27:20.864Z,66.37
2023-02-11T07:29:48.969Z,67.77
2023-02-11T07:32:15.748Z,67.01
2023-02-11T07:34:42.572Z,69.40
2023-02-11T07:39:52.045Z,70.33
2023-02-11T07:42:19.334Z,73.75
2023-02-11T07:44:49.255Z,74.38
2023-02-11T07:47:17.052Z,74.97
2023-02-11T07:49:43.707Z,79.42
2023-02-11T07:52:10.330Z,83.99
2023-02-11T07:54:37.134Z,80.60
2023-02-11T07:57:03.925Z,83.12
2023-02-11T07:59:30.574Z,78.33
2023-02-11T08:01:57.551Z,80.08
2023-02-11T08:04:24.257Z,82.13
2023-02-11T08:06:52.892Z,83.69
2023-02-11T08:09:19.542Z,81.99
2023-02-11T08:11:46.192Z,76.13
2023-02-11T08:14:13.022Z,75.55
2023-02-11T08:16:40.131Z,76.84
2023-02-11T08:19:11.749Z,77.84
2023-02-11T08:21:39.557Z,77.28
2023-02-11T08:24:13.144Z,82.43
2023-02-11T08:26:42.839Z,81.55
2023-02-11T08:29:12.228Z,87.02
2023-02-11T08:31:41.521Z,82.58
2023-02-11T08:34:10.026Z,76.94
2023-02-11T08:36:38.217Z,78.72
2023-02-11T08:39:18.626Z,72.91
2023-02-11T08:41:49.073Z,69.51
2023-02-11T08:44:16.626Z,65.75
2023-02-11T08:46:43.331Z,66.31
2023-02-11T08:49:10.203Z,63.87
2023-02-11T08:51:37.253Z,63.49
2023-02-11T08:54:04.580Z,63.41
2023-02-11T08:56:33.255Z,64.22
2023-02-11T08:58:59.919Z,62.82
2023-02-11T09:01:29.721Z,64.39
2023-02-11T09:03:58.445Z,64.89
2023-02-11T09:06:26.884Z,62.92
2023-02-11T09:08:57.805Z,61.03
2023-02-11T09:11:30.754Z,64.09
2023-02-11T09:13:57.659Z,58.02
2023-02-11T09:16:27.305Z,59.31
2023-02-11T09:18:57.413Z,60.01
2023-02-11T09:21:24.130Z,58.76
2023-02-11T09:23:51.084Z,57.54
2023-02-11T09:26:23.692Z,57.18
2023-02-11T09:28:51.542Z,58.28
2023-02-11T09:31:21.417Z,55.36
2023-02-11T09:33:50.461Z,55.03
2023-02-11T09:36:20.475Z,55.53
2023-02-11T09:38:48.319Z,54.84
2023-02-11T09:41:24.059Z,57.89
2023-02-11T09:43:59.352Z,54.09
2023-02-11T09:46:43.230Z,53.02
2023-02-11T09:49:21.953Z,52.46
2023-02-11T09:51:53.621Z,53.08
2023-02-11T09:54:34.272Z,51.21
2023-02-11T09:57:01.100Z,50.94
2023-02-11T09:59:28.180Z,51.55
2023-02-11T10:02:35.568Z,50.87
2023-02-11T10:05:23.925Z,49.82
2023-02-11T10:08:16.860Z,49.54
2023-02-11T10:11:07.462Z,48.79
2023-02-11T10:13:48.331Z,48.50
2023-02-11T10:16:55.524Z,48.65
2023-02-11T10:19:42.835Z,47.42
2023-02-11T10:22:17.508Z,47.83
2023-02-11T10:24:53.655Z,45.48
2023-02-11T10:27:29.179Z,46.20
2023-02-11T10:30:07.301Z,45.80
2023-02-11T10:32:49.770Z,46.07
2023-02-11T10:35:22.000Z,47.36
2023-02-11T10:37:49.223Z,46.35
2023-02-11T10:40:28.082Z,45.76
2023-02-11T10:43:01.434Z,46.07
2023-02-11T10:45:35.226Z,46.71
2023-02-11T10:48:06.356Z,46.23
2023-02-11T10:50:35.151Z,48.34
2023-02-11T10:53:20.971Z,47.90
2023-02-11T10:55:54.142Z,45.45
2023-02-11T10:58:30.847Z,45.88
2023-02-11T11:01:00.057Z,44.57
2023-02-11T11:03:32.099Z,44.59
2023-02-11T11:06:02.052Z,44.92
2023-02-11T11:08:40.810Z,45.74
2023-02-11T11:11:13.487Z,42.82
2023-02-11T11:14:03.302Z,43.04
2023-02-11T11:16:35.153Z,42.59
2023-02-11T11:19:08.536Z,43.77
2023-02-11T11:21:41.957Z,44.80
2023-02-11T11:24:18.920Z,45.08
2023-02-11T11:26:48.755Z,44.64
2023-02-11T11:29:18.412Z,44.45
2023-02-11T11:32:04.632Z,45.12
2023-02-11T11:34:43.198Z,44.06
2023-02-11T11:37:31.413Z,43.72
2023-02-11T11:40:18.204Z,43.01
2023-02-11T11:42:45.271Z,43.15
2023-02-11T11:45:27.089Z,42.48
2023-02-11T11:48:12.516Z,41.69
2023-02-11T11:51:00.322Z,41.38
2023-02-11T11:53:55.623Z,41.81
2023-02-11T12:13:29.021Z,40.11
2023-02-11T12:16:07.872Z,39.94
2023-02-11T12:19:14.405Z,40.26
2023-02-11T12:22:20.921Z,40.61
2023-02-11T12:24:56.908Z,38.63
2023-02-11T12:27:45.616Z,39.59
2023-02-11T12:30:51.365Z,40.28
2023-02-11T12:33:38.588Z,40.76
2023-02-11T12:36:27.625Z,41.95
2023-02-11T12:42:10.788Z,41.93
2023-02-11T12:44:58.246Z,42.75
2023-02-11T12:47:43.741Z,42.36
2023-02-11T12:50:34.920Z,39.29
2023-02-11T12:53:23.095Z,39.88
2023-02-11T12:55:56.152Z,40.04
2023-02-11T12:58:42.895Z,39.91
2023-02-11T13:01:26.095Z,39.62
2023-02-11T13:04:14.244Z,38.83
2023-02-11T13:06:50.180Z,38.63
2023-02-11T13:09:33.094Z,39.28
2023-02-11T13:12:26.492Z,38.26
2023-02-11T13:14:59.344Z,38.14
2023-02-11T13:23:06.853Z,37.69
2023-02-11T13:26:05.947Z,37.19
2023-02-11T13:28:42.466Z,37.62
2023-02-11T13:31:27.880Z,37.56
2023-02-11T13:33:59.083Z,37.84
2023-02-11T13:39:09.340Z,37.03
2023-02-11T13:41:40.572Z,37.11
2023-02-11T13:44:10.211Z,38.56
2023-02-11T13:46:57.298Z,36.84
2023-02-11T13:49:51.757Z,37.63
2023-02-11T13:52:34.508Z,35.54
2023-02-11T13:55:25.183Z,35.62
2023-02-11T13:58:07.106Z,35.24
2023-02-11T14:00:33.677Z,35.25
2023-02-11T14:03:31.030Z,36.78
2023-02-11T14:06:30.576Z,36.03
2023-02-11T14:09:09.453Z,35.48
2023-02-11T14:11:47.138Z,35.56
2023-02-11T14:15:02.865Z,36.03
2023-02-11T14:17:33.530Z,37.25
2023-02-11T14:20:04.632Z,37.39
2023-02-11T14:22:44.245Z,38.48
2023-02-11T14:25:22.988Z,38.02
2023-02-11T14:28:08.105Z,38.88
2023-02-11T14:30:52.188Z,38.82
2023-02-11T14:33:47.890Z,39.22
2023-02-11T14:36:29.796Z,38.18
2023-02-11T14:39:11.597Z,38.35
2023-02-11T14:41:47.290Z,37.92
2023-02-11T14:44:30.117Z,38.63
2023-02-11T14:46:58.088Z,38.52
2023-02-11T14:49:39.539Z,38.65
2023-02-11T14:52:14.695Z,39.36
2023-02-11T14:54:44.653Z,39.39
2023-02-11T14:57:18.359Z,38.85
2023-02-11T15:00:03.575Z,38.88
2023-02-11T15:02:35.374Z,39.13
2023-02-11T15:05:29.021Z,38.66
2023-02-11T15:08:00.032Z,37.62
2023-02-11T15:10:41.921Z,37.60
2023-02-11T15:13:13.974Z,37.50
2023-02-11T15:15:40.966Z,36.87
2023-02-11T15:18:09.713Z,34.26
2023-02-11T15:20:37.065Z,33.05
2023-02-11T15:23:08.593Z,34.60
2023-02-11T15:25:43.034Z,36.50
2023-02-11T15:28:30.893Z,37.05
2023-02-11T15:31:00.469Z,38.44
2023-02-11T15:33:30.257Z,38.84
2023-02-11T15:35:57.747Z,41.35
2023-02-11T15:38:24.660Z,40.47
2023-02-11T15:40:58.328Z,41.46
2023-02-11T15:43:25.425Z,42.09
2023-02-11T15:45:51.921Z,42.02
2023-02-11T15:48:47.228Z,42.67
2023-02-11T15:51:30.113Z,43.59
2023-02-11T15:53:59.689Z,44.12
2023-02-11T15:56:30.700Z,44.48
2023-02-11T15:59:00.738Z,45.13
2023-02-11T16:01:36.570Z,45.94
2023-02-11T16:04:04.976Z,46.71
2023-02-11T16:06:42.795Z,47.01
2023-02-11T16:09:10.228Z,47.96
2023-02-11T16:11:45.961Z,48.50
2023-02-11T16:14:42.212Z,48.28
2023-02-11T16:17:13.264Z,48.05
2023-02-11T16:19:47.935Z,48.85
2023-02-11T16:22:19.282Z,48.41
2023-02-11T16:24:48.615Z,48.74
2023-02-11T16:27:31.271Z,47.93
2023-02-11T16:29:58.806Z,47.77
2023-02-11T16:32:29.834Z,48.12
2023-02-11T16:34:59.440Z,47.97
2023-02-11T16:37:26.372Z,47.84
2023-02-11T16:39:58.108Z,48.46
2023-02-11T16:42:25.254Z,50.02
2023-02-11T16:44:52.040Z,49.99
2023-02-11T16:47:28.699Z,48.71
2023-02-11T16:49:56.209Z,48.86
2023-02-11T16:52:24.407Z,48.95
2023-02-11T16:54:51.268Z,48.19
2023-02-11T16:57:23.230Z,49.79
2023-02-11T16:59:49.847Z,48.55
2023-02-11T17:02:28.525Z,49.08
2023-02-11T17:04:58.172Z,49.33
2023-02-11T17:07:24.820Z,49.87
2023-02-11T17:09:52.301Z,50.36
2023-02-11T17:12:19.737Z,50.60
2023-02-11T17:14:46.400Z,50.88
2023-02-11T17:17:13.494Z,51.65
2023-02-11T17:19:40.153Z,51.34
2023-02-11T17:22:06.933Z,51.32
2023-02-11T17:24:33.532Z,51.73
2023-02-11T17:27:00.241Z,51.87
2023-02-11T17:29:27.196Z,52.84
2023-02-11T17:31:54.047Z,51.88
2023-02-11T17:34:22.337Z,52.42
2023-02-11T17:36:49.214Z,51.91
2023-02-11T17:39:15.931Z,51.95
2023-02-11T17:41:42.772Z,51.97
2023-02-11T17:44:12.531Z,52.91
2023-02-11T17:46:39.172Z,52.06
2023-02-11T17:49:05.866Z,51.91
2023-02-11T17:51:37.765Z,52.07
2023-02-11T17:54:11.918Z,52.76
2023-02-11T17:56:39.210Z,52.90
2023-02-11T17:59:06.861Z,53.88
2023-02-11T18:01:34.559Z,52.45
2023-02-11T18:04:01.699Z,52.55
2023-02-11T18:06:31.562Z,52.91
2023-02-11T18:08:59.890Z,53.11
2023-02-11T18:11:27.946Z,52.80
2023-02-11T18:13:54.765Z,52.87
2023-02-11T18:16:23.128Z,52.99
2023-02-11T18:18:50.581Z,52.52
2023-02-11T18:21:20.413Z,52.79
2023-02-11T18:23:47.773Z,53.60
2023-02-11T18:26:16.978Z,53.80
2023-02-11T18:28:45.989Z,54.17
2023-02-11T18:31:14.071Z,53.48
2023-02-11T18:33:42.235Z,53.61
2023-02-11T18:36:11.553Z,53.34
2023-02-11T18:38:38.668Z,53.41
2023-02-11T18:41:05.721Z,52.78
2023-02-11T18:43:33.777Z,53.70
2023-02-11T18:46:02.159Z,53.40
2023-02-11T18:48:29.066Z,53.63
2023-02-11T18:50:56.142Z,53.44
2023-02-11T18:53:24.682Z,52.38
2023-02-11T18:55:52.662Z,51.69
2023-02-11T18:58:21.204Z,51.72
2023-02-11T19:00:49.034Z,50.97
2023-02-11T19:03:16.077Z,51.50
2023-02-11T19:05:48.136Z,51.18
2023-02-11T19:08:15.335Z,52.22
2023-02-11T19:10:44.515Z,52.27
2023-02-11T19:13:11.716Z,51.86
2023-02-11T19:15:43.382Z,51.60
2023-02-11T19:18:10.748Z,51.61
2023-02-11T19:20:42.034Z,50.82
2023-02-11T19:23:09.274Z,52.16
2023-02-11T19:25:36.245Z,50.61
2023-02-11T19:28:03.939Z,50.92
2023-02-11T19:30:30.773Z,50.06
2023-02-11T19:32:57.793Z,50.53
2023-02-11T19:35:25.382Z,49.93
2023-02-11T19:37:52.055Z,50.05
2023-02-11T19:40:21.270Z,50.40
2023-02-11T19:42:48.053Z,50.38
2023-02-11T19:45:14.791Z,50.11
2023-02-11T19:47:41.518Z,49.82
2023-02-11T19:50:08.673Z,49.71
2023-02-11T19:52:38.312Z,49.47
2023-02-11T19:55:05.209Z,50.29
2023-02-11T19:57:31.906Z,48.59
2023-02-11T19:59:58.570Z,47.78
2023-02-11T20:02:25.264Z,47.62
2023-02-11T20:04:51.897Z,47.57
2023-02-11T20:07:18.558Z,47.22
2023-02-11T20:09:45.183Z,47.25
2023-02-11T20:12:12.137Z,46.76
2023-02-11T20:14:38.911Z,47.10
2023-02-11T20:17:05.584Z,48.17
2023-02-11T20:19:32.375Z,46.96
2023-02-11T20:21:58.940Z,46.72
2023-02-11T20:24:26.178Z,46.24
2023-02-11T20:26:55.936Z,46.63
2023-02-11T20:29:24.057Z,45.74
2023-02-11T20:31:50.948Z,46.52
2023-02-11T20:34:18.178Z,47.48
2023-02-11T20:36:52.057Z,46.03
2023-02-11T20:39:21.761Z,45.63
2023-02-11T20:41:49.208Z,46.48
2023-02-11T20:44:16.258Z,46.42
2023-02-11T20:46:48.087Z,46.76
2023-02-11T20:49:18.950Z,47.07
2023-02-11T20:51:46.455Z,46.49
2023-02-11T20:54:15.500Z,46.85
2023-02-11T20:56:42.762Z,47.45
2023-02-11T20:59:09.783Z,46.38
2023-02-11T21:01:43.002Z,48.63
2023-02-11T21:04:15.618Z,53.40
2023-02-11T21:06:44.725Z,51.93
2023-02-11T21:09:15.016Z,59.70
2023-02-11T21:11:42.366Z,56.66
2023-02-11T21:14:10.364Z,57.08
2023-02-11T21:16:37.250Z,51.65
2023-02-11T21:19:04.516Z,58.04
2023-02-11T21:21:31.768Z,56.38
2023-02-11T21:23:58.699Z,50.84
2023-02-11T21:26:25.767Z,53.76
2023-02-11T21:28:52.336Z,51.57
2023-02-11T21:31:23.062Z,51.58
2023-02-11T21:33:50.988Z,52.05
2023-02-11T21:36:17.989Z,52.70
2023-02-11T21:38:44.926Z,54.73
2023-02-11T21:41:11.674Z,55.07
2023-02-11T21:43:38.499Z,59.18
2023-02-11T21:46:10.771Z,54.44
2023-02-11T21:48:37.901Z,53.41
2023-02-11T21:51:25.937Z,52.89
2023-02-11T21:53:56.381Z,52.49
2023-02-11T21:56:23.856Z,52.43
2023-02-11T21:58:53.434Z,53.50
2023-02-11T22:01:28.979Z,53.37
2023-02-11T22:03:55.936Z,53.29
2023-02-11T22:06:30.931Z,53.28
2023-02-11T22:08:58.064Z,53.76
2023-02-11T22:11:25.027Z,53.63
2023-02-11T22:13:56.370Z,54.20
2023-02-11T22:16:23.941Z,54.27
2023-02-11T22:18:51.504Z,54.89
2023-02-11T22:21:20.843Z,54.77
2023-02-11T22:23:47.983Z,55.69
2023-02-11T22:26:21.486Z,54.53
2023-02-11T22:28:48.913Z,54.58
2023-02-11T22:31:22.276Z,53.92
2023-02-11T22:33:49.071Z,53.47
2023-02-11T22:36:19.073Z,53.64
2023-02-11T22:38:45.794Z,52.88
2023-02-11T22:41:12.957Z,53.21
2023-02-11T22:43:41.848Z,53.78
2023-02-11T22:46:09.427Z,54.13
2023-02-11T22:48:36.117Z,53.23
2023-02-11T22:51:11.239Z,53.55
2023-02-11T22:53:37.897Z,53.45
2023-02-11T22:56:15.333Z,54.79
2023-02-11T22:58:42.543Z,54.96
2023-02-11T23:01:09.216Z,54.78
2023-02-11T23:03:36.530Z,54.81
2023-02-11T23:06:03.540Z,54.14
2023-02-11T23:08:31.642Z,54.45
2023-02-11T23:11:24.399Z,55.00
2023-02-11T23:13:52.318Z,54.55
2023-02-11T23:16:23.648Z,55.33
2023-02-11T23:18:51.144Z,55.41
2023-02-11T23:21:23.613Z,56.08
2023-02-11T23:23:55.161Z,56.31
2023-02-11T23:26:21.841Z,56.07
2023-02-11T23:28:48.490Z,57.13
2023-02-11T23:31:21.852Z,55.25
2023-02-11T23:33:49.424Z,56.02
2023-02-11T23:36:18.376Z,55.22
2023-02-11T23:38:45.562Z,53.72
2023-02-11T23:41:12.482Z,53.38
2023-02-11T23:43:39.367Z,53.11
2023-02-11T23:46:06.674Z,52.94
2023-02-11T23:48:33.892Z,52.48
2023-02-11T23:51:00.404Z,52.15
2023-02-11T23:53:27.142Z,52.61
2023-02-11T23:55:54.039Z,52.57
2023-02-11T23:58:20.973Z,53.14
